Time;durP1;ratioP1;P1;durP2;ratioP2;P2;SDS_P1;SDS_P2;PMS_P1;PMS_P2;Temp;Humidity;BMP_temperature;BMP_pressure;BME280_temperature;BME280_humidity;BME280_pressure;Samples;Min_cycle;Max_cycle;Signal;HPM_P1;HPM_P2
2020/12/23 00:01:44;;;;;;;29.90;21.60;;;10.80;99.90;;;;;;5029015;28;20316;-88
2020/12/23 00:04:11;;;;;;;36.53;24.00;;;11.00;99.90;;;;;;5031674;28;20196;-90
2020/12/23 00:06:37;;;;;;;34.22;23.05;;;11.00;99.90;;;;;;5036127;28;20196;-90
2020/12/23 00:09:06;;;;;;;33.97;23.40;;;11.10;99.90;;;;;;5035780;28;20224;-89
2020/12/23 00:11:32;;;;;;;34.40;23.58;;;11.00;99.90;;;;;;5036076;28;20207;-90
2020/12/23 00:13:59;;;;;;;37.20;25.23;;;11.00;99.90;;;;;;5025127;28;20218;-90
2020/12/23 00:16:25;;;;;;;39.03;24.40;;;11.00;99.90;;;;;;5039502;28;20217;-90
2020/12/23 00:18:51;;;;;;;35.58;23.73;;;11.00;99.90;;;;;;5038505;28;20186;-90
2020/12/23 00:21:18;;;;;;;42.58;25.63;;;11.10;99.90;;;;;;5038661;28;20212;-90
2020/12/23 00:23:44;;;;;;;34.75;24.65;;;11.10;99.90;;;;;;5036232;28;20223;-90
2020/12/23 00:26:12;;;;;;;36.25;25.23;;;11.10;99.90;;;;;;5036087;28;20185;-90
2020/12/23 00:28:40;;;;;;;34.20;25.30;;;11.00;99.90;;;;;;5036287;28;20196;-90
2020/12/23 00:31:07;;;;;;;39.58;24.65;;;11.10;99.90;;;;;;5034702;28;20628;-90
2020/12/23 00:33:33;;;;;;;37.33;25.65;;;11.10;99.90;;;;;;5035923;28;20190;-90
2020/12/23 00:36:00;;;;;;;37.50;26.40;;;11.10;99.90;;;;;;5035888;28;20211;-89
2020/12/23 00:38:29;;;;;;;35.55;24.10;;;11.30;99.90;;;;;;5035281;28;20189;-90
2020/12/23 00:40:55;;;;;;;41.13;24.90;;;11.10;99.90;;;;;;5035933;28;20190;-89
2020/12/23 00:43:22;;;;;;;38.95;25.88;;;11.10;99.90;;;;;;5026127;28;20210;-90
2020/12/23 00:45:49;;;;;;;39.53;26.10;;;11.10;99.90;;;;;;5015887;28;20689;-89
2020/12/23 00:48:15;;;;;;;41.67;25.45;;;11.10;99.90;;;;;;5023494;28;20185;-90
2020/12/23 00:50:41;;;;;;;41.97;24.33;;;11.10;99.90;;;;;;5035728;28;20189;-90
2020/12/23 00:53:08;;;;;;;36.42;26.00;;;11.30;99.90;;;;;;5034583;28;20216;-89
2020/12/23 00:55:34;;;;;;;41.05;26.52;;;11.10;99.90;;;;;;5034735;28;20204;-89
2020/12/23 00:58:00;;;;;;;41.78;26.38;;;11.20;99.90;;;;;;5035277;28;20189;-88
2020/12/23 01:00:27;;;;;;;43.42;26.00;;;11.20;99.90;;;;;;5034928;28;20288;-88
2020/12/23 01:02:54;;;;;;;42.70;28.45;;;11.30;99.90;;;;;;5034657;28;20220;-89
2020/12/23 01:05:20;;;;;;;47.17;26.65;;;11.20;99.90;;;;;;5034478;28;20195;-90
2020/12/23 01:07:46;;;;;;;41.83;25.38;;;11.20;99.90;;;;;;5034353;28;20652;-90
2020/12/23 01:10:13;;;;;;;33.42;20.23;;;11.30;99.90;;;;;;5034928;28;20196;-89
2020/12/23 01:12:39;;;;;;;39.28;23.30;;;11.30;99.90;;;;;;5034232;28;20201;-90
2020/12/23 01:15:05;;;;;;;35.55;24.58;;;11.30;99.90;;;;;;5034502;28;20220;-90
2020/12/23 01:17:33;;;;;;;37.25;23.90;;;11.30;99.90;;;;;;5034548;28;20541;-89
2020/12/23 01:19:59;;;;;;;31.33;23.08;;;11.30;99.90;;;;;;5034644;28;20180;-89
2020/12/23 01:22:25;;;;;;;35.55;24.38;;;11.30;99.90;;;;;;5034127;28;20209;-89
2020/12/23 01:24:52;;;;;;;43.20;23.10;;;11.30;99.90;;;;;;5034599;28;20277;-89
2020/12/23 01:27:18;;;;;;;38.90;21.80;;;11.30;99.90;;;;;;5034019;28;20265;-89
2020/12/23 01:29:44;;;;;;;31.38;21.40;;;11.40;99.90;;;;;;5035014;28;20205;-89
2020/12/23 01:32:12;;;;;;;37.78;23.92;;;11.30;99.90;;;;;;5034824;28;20275;-90
2020/12/23 01:34:39;;;;;;;28.70;19.90;;;11.70;99.90;;;;;;5034717;28;20275;-90
2020/12/23 01:37:05;;;;;;;37.58;20.58;;;11.30;99.90;;;;;;5024219;28;20277;-88
2020/12/23 01:39:32;;;;;;;31.48;20.95;;;11.30;99.90;;;;;;5015081;28;20252;-88
2020/12/23 01:41:59;;;;;;;30.08;17.83;;;11.30;99.90;;;;;;5025381;28;20268;-88
2020/12/23 01:44:25;;;;;;;27.83;15.68;;;11.30;99.90;;;;;;5032834;28;20192;-89
2020/12/23 01:46:52;;;;;;;26.98;18.92;;;11.30;99.90;;;;;;5025017;28;20230;-88
2020/12/23 01:49:19;;;;;;;25.08;17.13;;;11.40;99.90;;;;;;5034564;28;20184;-89
2020/12/23 01:51:47;;;;;;;24.70;17.65;;;11.30;99.90;;;;;;5034715;28;20189;-89
2020/12/23 01:54:14;;;;;;;27.65;16.90;;;11.30;99.90;;;;;;5035001;28;20206;-88
2020/12/23 01:56:43;;;;;;;31.00;18.70;;;11.30;99.90;;;;;;5034478;28;20571;-89
2020/12/23 01:59:12;;;;;;;30.20;18.88;;;11.30;99.90;;;;;;5034577;28;20201;-89
2020/12/23 02:01:46;;;;;;;33.13;19.25;;;11.40;99.90;;;;;;5035054;28;20181;-89
2020/12/23 02:04:15;;;;;;;29.27;19.63;;;11.40;99.90;;;;;;5021768;28;20240;-89
2020/12/23 02:06:42;;;;;;;32.08;20.45;;;11.30;99.90;;;;;;5036445;28;20234;-89
2020/12/23 02:09:10;;;;;;;30.42;18.52;;;11.30;99.90;;;;;;5037261;28;20193;-89
2020/12/23 02:11:36;;;;;;;32.38;20.40;;;11.20;99.90;;;;;;5039751;28;20201;-89
2020/12/23 02:14:03;;;;;;;33.03;21.10;;;11.40;99.90;;;;;;5038662;28;20209;-89
2020/12/23 02:16:29;;;;;;;34.78;22.95;;;11.40;99.90;;;;;;5038058;28;20217;-88
2020/12/23 02:18:55;;;;;;;43.45;22.55;;;11.30;99.90;;;;;;5036734;28;20190;-89
2020/12/23 02:21:23;;;;;;;32.20;20.92;;;11.30;99.90;;;;;;5036937;28;20193;-88
2020/12/23 02:23:51;;;;;;;30.67;19.20;;;11.30;99.90;;;;;;5037157;28;20580;-88
2020/12/23 02:26:17;;;;;;;33.65;23.15;;;11.50;99.90;;;;;;5035636;28;20192;-90
2020/12/23 02:28:44;;;;;;;37.22;23.63;;;11.10;99.90;;;;;;5035082;28;20188;-87
2020/12/23 02:31:10;;;;;;;35.78;20.92;;;11.30;99.90;;;;;;5033668;28;20188;-88
2020/12/23 02:33:36;;;;;;;31.27;20.13;;;11.30;99.90;;;;;;5034181;28;20196;-88
2020/12/23 02:36:03;;;;;;;31.80;21.17;;;11.30;99.90;;;;;;5032738;28;20201;-89
2020/12/23 02:38:29;;;;;;;33.92;20.58;;;11.30;99.90;;;;;;5033802;28;20279;-89
2020/12/23 02:40:56;;;;;;;37.95;21.58;;;11.30;99.90;;;;;;5032742;28;20185;-89
2020/12/23 02:43:22;;;;;;;32.95;21.08;;;11.30;99.90;;;;;;5033390;28;20680;-89
2020/12/23 02:45:49;;;;;;;35.45;20.48;;;11.40;99.90;;;;;;5033350;28;20196;-89
2020/12/23 02:48:15;;;;;;;28.92;19.20;;;11.50;99.90;;;;;;5033733;28;20215;-89
2020/12/23 02:50:41;;;;;;;35.55;20.58;;;11.30;99.90;;;;;;5033543;28;20203;-89
2020/12/23 02:53:08;;;;;;;34.80;19.48;;;11.30;99.90;;;;;;5035882;28;20227;-88
2020/12/23 02:55:34;;;;;;;28.48;19.33;;;11.40;99.90;;;;;;5041659;28;20266;-89
2020/12/23 02:58:01;;;;;;;29.88;18.45;;;11.40;99.90;;;;;;5045476;28;20204;-89
2020/12/23 03:00:27;;;;;;;31.48;19.58;;;11.40;99.90;;;;;;5045036;28;20195;-89
2020/12/23 03:02:54;;;;;;;32.60;20.20;;;11.30;99.90;;;;;;5027203;28;20217;-89
2020/12/23 03:05:20;;;;;;;29.30;17.90;;;11.40;99.90;;;;;;5038414;28;20186;-89
2020/12/23 03:07:46;;;;;;;29.20;18.45;;;11.40;99.90;;;;;;5040915;28;20185;-89
2020/12/23 03:10:12;;;;;;;41.33;19.65;;;11.40;99.90;;;;;;5039786;28;20193;-88
2020/12/23 03:12:39;;;;;;;30.85;21.10;;;11.30;99.90;;;;;;5041420;28;20210;-89
2020/12/23 03:15:06;;;;;;;35.10;20.95;;;11.30;99.90;;;;;;5046374;28;20216;-89
2020/12/23 03:17:33;;;;;;;28.48;19.98;;;11.40;99.90;;;;;;5045519;28;20256;-88
2020/12/23 03:19:59;;;;;;;32.35;22.15;;;11.40;99.90;;;;;;5042442;28;20195;-89
2020/12/23 03:22:26;;;;;;;29.63;20.25;;;11.40;99.90;;;;;;5038895;28;20229;-89
2020/12/23 03:24:52;;;;;;;25.33;18.75;;;11.40;99.90;;;;;;5038892;28;20181;-88
2020/12/23 03:27:18;;;;;;;32.60;20.45;;;11.40;99.90;;;;;;5038550;28;20259;-89
2020/12/23 03:29:45;;;;;;;32.20;21.75;;;11.40;99.90;;;;;;5039189;28;20216;-89
2020/12/23 03:32:12;;;;;;;27.73;21.08;;;11.30;99.90;;;;;;5040692;28;20216;-89
2020/12/23 03:34:38;;;;;;;27.10;23.52;;;11.40;99.90;;;;;;5040038;28;20580;-89
2020/12/23 03:37:04;;;;;;;30.38;22.50;;;11.50;99.90;;;;;;5038449;28;20190;-89
2020/12/23 03:39:30;;;;;;;25.60;21.08;;;11.40;99.90;;;;;;5039132;28;20228;-89
2020/12/23 03:41:57;;;;;;;29.08;21.25;;;11.40;99.90;;;;;;5038613;28;20299;-88
2020/12/23 03:44:23;;;;;;;30.95;19.73;;;11.40;99.90;;;;;;5037849;28;20208;-89
2020/12/23 03:46:49;;;;;;;31.75;23.92;;;11.40;99.90;;;;;;5036770;28;20727;-89
2020/12/23 03:49:16;;;;;;;39.90;24.10;;;11.50;99.90;;;;;;5037306;28;20193;-88
2020/12/23 03:51:43;;;;;;;35.72;23.40;;;11.40;99.90;;;;;;5039420;28;20676;-89
2020/12/23 03:54:09;;;;;;;36.25;24.73;;;11.40;99.90;;;;;;5040447;28;20185;-89
2020/12/23 03:56:35;;;;;;;33.47;23.45;;;11.40;99.90;;;;;;5042051;28;20189;-88
2020/12/23 03:59:02;;;;;;;40.05;22.15;;;11.40;99.90;;;;;;5046484;28;20224;-89
2020/12/23 04:01:28;;;;;;;30.10;25.52;;;11.50;99.90;;;;;;5046103;28;20181;-89
2020/12/23 04:03:54;;;;;;;31.33;23.55;;;11.50;99.90;;;;;;5045442;28;20225;-89
2020/12/23 04:06:21;;;;;;;30.67;23.10;;;11.50;99.90;;;;;;5046344;28;20200;-89
2020/12/23 04:08:48;;;;;;;33.55;26.17;;;11.50;99.90;;;;;;5045200;28;20200;-89
2020/12/23 04:11:14;;;;;;;33.83;24.35;;;11.50;99.90;;;;;;5043172;28;20189;-88
2020/12/23 04:13:40;;;;;;;42.80;27.38;;;11.50;99.90;;;;;;5038545;28;20225;-88
2020/12/23 04:16:06;;;;;;;28.58;21.80;;;11.50;99.90;;;;;;5038941;28;20193;-88
2020/12/23 04:18:33;;;;;;;30.05;22.00;;;11.40;99.90;;;;;;5041847;28;20206;-88
2020/12/23 04:20:59;;;;;;;34.13;24.10;;;11.40;99.90;;;;;;5037067;28;20193;-88
2020/12/23 04:23:26;;;;;;;29.90;22.10;;;11.40;99.90;;;;;;5036940;28;20214;-89
2020/12/23 04:25:52;;;;;;;32.15;23.85;;;11.40;99.90;;;;;;5037178;28;20318;-86
2020/12/23 04:28:18;;;;;;;35.78;22.17;;;11.50;99.90;;;;;;5035834;28;20188;-86
2020/12/23 04:30:47;;;;;;;33.65;23.30;;;11.40;99.90;;;;;;5038428;28;20262;-85
2020/12/23 04:33:14;;;;;;;35.25;24.45;;;11.40;99.90;;;;;;5039333;28;20181;-86
2020/12/23 04:35:40;;;;;;;37.80;23.48;;;11.40;99.90;;;;;;5038529;28;20223;-85
2020/12/23 04:38:06;;;;;;;38.72;25.77;;;11.30;99.90;;;;;;5038607;28;20232;-86
2020/12/23 04:40:33;;;;;;;42.08;25.88;;;11.30;99.90;;;;;;5022386;28;20262;-85
2020/12/23 04:43:00;;;;;;;36.40;24.10;;;11.30;99.90;;;;;;5035475;28;20215;-85
2020/12/23 04:45:27;;;;;;;36.17;24.00;;;11.30;99.90;;;;;;5034793;28;20186;-86
2020/12/23 04:47:55;;;;;;;33.03;22.05;;;11.30;99.90;;;;;;5036248;28;20220;-86
2020/12/23 04:50:22;;;;;;;28.70;21.05;;;11.30;99.90;;;;;;5035886;28;20188;-86
2020/12/23 04:52:49;;;;;;;28.48;21.23;;;11.30;99.90;;;;;;5035830;28;20201;-86
2020/12/23 04:55:15;;;;;;;26.50;19.17;;;11.30;99.90;;;;;;5036378;28;20186;-86
2020/12/23 04:57:44;;;;;;;28.35;18.83;;;11.40;99.90;;;;;;5035931;28;20205;-87
2020/12/23 05:00:11;;;;;;;27.90;20.23;;;11.40;99.90;;;;;;5038025;28;20185;-87
2020/12/23 05:02:37;;;;;;;26.83;20.17;;;11.40;99.90;;;;;;5041151;28;20221;-87
2020/12/23 05:05:03;;;;;;;25.25;19.80;;;11.30;99.90;;;;;;5040069;28;20263;-87
2020/12/23 05:07:30;;;;;;;29.73;18.73;;;11.40;99.90;;;;;;5027398;28;20289;-88
2020/12/23 05:09:56;;;;;;;25.73;18.90;;;11.50;99.90;;;;;;5019984;28;20591;-88
2020/12/23 05:12:22;;;;;;;24.70;19.67;;;11.30;99.90;;;;;;5034742;28;20248;-87
2020/12/23 05:14:50;;;;;;;22.52;16.42;;;11.30;99.90;;;;;;5034126;28;20226;-87
2020/12/23 05:17:17;;;;;;;22.10;16.00;;;11.40;99.90;;;;;;5034644;28;20794;-87
2020/12/23 05:19:47;;;;;;;25.67;17.02;;;11.40;99.90;;;;;;5032210;28;20190;-87
2020/12/23 05:22:16;;;;;;;20.98;16.20;;;11.40;99.90;;;;;;5015438;28;20609;-87
2020/12/23 05:24:43;;;;;;;25.60;17.83;;;11.30;99.90;;;;;;5020101;28;20184;-86
2020/12/23 05:27:09;;;;;;;19.40;15.15;;;11.30;99.90;;;;;;5034735;28;20185;-86
2020/12/23 05:29:35;;;;;;;27.25;18.42;;;11.30;99.90;;;;;;5034305;28;20189;-86
2020/12/23 05:32:04;;;;;;;20.63;15.40;;;11.30;99.90;;;;;;5034277;28;20186;-86
2020/12/23 05:34:33;;;;;;;22.83;17.38;;;11.30;99.90;;;;;;5034000;28;20189;-86
2020/12/23 05:37:02;;;;;;;22.92;14.13;;;11.30;99.90;;;;;;5034156;28;20685;-86
2020/12/23 05:39:30;;;;;;;18.27;14.23;;;11.30;99.90;;;;;;5034421;28;20217;-86
2020/12/23 05:41:57;;;;;;;20.33;12.90;;;11.30;99.90;;;;;;5034640;28;20189;-87
2020/12/23 05:44:24;;;;;;;21.35;14.07;;;11.30;99.90;;;;;;5033508;28;20220;-86
2020/12/23 05:46:52;;;;;;;21.58;15.30;;;11.30;99.90;;;;;;5034650;28;20192;-86
2020/12/23 05:49:21;;;;;;;18.83;12.43;;;11.30;99.90;;;;;;5020800;28;20186;-86
2020/12/23 05:51:50;;;;;;;16.50;12.20;;;11.20;99.90;;;;;;5019152;28;20185;-85
2020/12/23 05:54:18;;;;;;;19.38;12.05;;;11.30;99.90;;;;;;5033728;28;20191;-85
2020/12/23 05:56:45;;;;;;;13.13;9.73;;;11.20;99.90;;;;;;5033450;28;20580;-85
2020/12/23 05:59:11;;;;;;;14.27;9.50;;;11.20;99.90;;;;;;5033927;28;20236;-85
2020/12/23 06:01:39;;;;;;;16.00;11.10;;;11.20;99.90;;;;;;5033264;28;20188;-85
2020/12/23 06:04:07;;;;;;;14.23;10.10;;;11.20;99.90;;;;;;5033574;28;20270;-84
2020/12/23 06:06:36;;;;;;;9.43;7.43;;;11.20;99.90;;;;;;5033196;28;20180;-85
2020/12/23 06:09:05;;;;;;;11.55;8.35;;;11.20;99.90;;;;;;5033716;28;20194;-86
2020/12/23 06:11:37;;;;;;;10.93;8.07;;;11.20;99.90;;;;;;5041540;28;20276;-84
2020/12/23 06:14:21;;;;;;;8.48;6.30;;;11.20;99.90;;;;;;5033669;28;20220;-87
2020/12/23 06:16:49;;;;;;;11.38;8.23;;;11.20;99.90;;;;;;5033825;28;20195;-88
2020/12/23 06:19:27;;;;;;;11.10;7.97;;;11.20;99.90;;;;;;5033972;28;20185;-89
2020/12/23 06:21:57;;;;;;;14.95;9.30;;;11.30;99.90;;;;;;5034195;28;20641;-88
2020/12/23 06:24:23;;;;;;;16.23;11.00;;;11.20;99.90;;;;;;5026582;28;20217;-88
2020/12/23 06:26:51;;;;;;;12.70;11.15;;;11.20;99.90;;;;;;5030255;28;20240;-87
2020/12/23 06:29:19;;;;;;;14.80;11.20;;;11.30;99.90;;;;;;5033152;28;20181;-87
2020/12/23 06:31:47;;;;;;;13.43;10.63;;;11.20;99.90;;;;;;5033818;28;20194;-88
2020/12/23 06:34:16;;;;;;;12.60;11.27;;;11.30;99.90;;;;;;5033492;28;20203;-88
2020/12/23 06:36:43;;;;;;;14.23;12.30;;;11.30;99.90;;;;;;5033369;28;20200;-89
2020/12/23 06:39:31;;;;;;;14.95;11.00;;;11.20;99.90;;;;;;5032958;28;20209;-88
2020/12/23 06:42:34;;;;;;;11.60;9.27;;;11.30;99.90;;;;;;5026824;28;20233;-88
2020/12/23 06:45:12;;;;;;;8.20;7.13;;;11.30;99.90;;;;;;5026622;28;20284;-87
2020/12/23 06:47:39;;;;;;;9.32;8.00;;;11.30;99.90;;;;;;5035144;28;20184;-87
2020/12/23 06:50:13;;;;;;;9.02;7.88;;;11.30;99.90;;;;;;5027857;28;20211;-87
2020/12/23 06:52:45;;;;;;;10.85;9.20;;;11.40;99.90;;;;;;5024738;28;20216;-87
2020/12/23 06:55:13;;;;;;;8.52;6.50;;;11.30;99.90;;;;;;5015925;28;20213;-88
2020/12/23 06:57:57;;;;;;;7.70;6.78;;;11.40;99.90;;;;;;5034354;28;20194;-87
2020/12/23 07:00:34;;;;;;;11.30;7.45;;;11.40;99.90;;;;;;5033095;28;20268;-87
2020/12/23 07:03:01;;;;;;;10.88;8.10;;;11.40;99.90;;;;;;5023905;28;20215;-87
2020/12/23 07:05:47;;;;;;;9.90;8.55;;;11.40;99.90;;;;;;5034664;28;20197;-88
2020/12/23 07:08:16;;;;;;;10.93;9.82;;;11.40;99.90;;;;;;5034286;28;20228;-87
2020/12/23 07:10:48;;;;;;;10.45;8.60;;;11.40;99.90;;;;;;5035376;28;20197;-88
2020/12/23 07:13:16;;;;;;;9.70;7.95;;;11.40;99.90;;;;;;5027076;28;20229;-88
2020/12/23 07:15:44;;;;;;;12.75;9.55;;;11.40;99.90;;;;;;5033354;28;20186;-87
2020/12/23 07:18:12;;;;;;;11.88;7.97;;;11.50;99.90;;;;;;5035797;28;20181;-87
2020/12/23 07:20:44;;;;;;;17.38;9.25;;;11.50;99.90;;;;;;5036546;28;20200;-87
2020/12/23 07:23:12;;;;;;;11.63;9.60;;;11.50;99.90;;;;;;5039793;28;20233;-85
2020/12/23 07:25:41;;;;;;;9.32;7.40;;;11.50;99.90;;;;;;5038657;28;20190;-86
2020/12/23 07:28:10;;;;;;;9.10;7.18;;;11.50;99.90;;;;;;5022429;28;20551;-86
2020/12/23 07:30:41;;;;;;;13.50;8.23;;;11.60;99.90;;;;;;5035414;28;20203;-86
2020/12/23 07:33:09;;;;;;;7.97;7.18;;;11.60;99.90;;;;;;5035789;28;20212;-87
2020/12/23 07:35:37;;;;;;;10.55;8.23;;;11.60;99.90;;;;;;5037659;28;20200;-87
2020/12/23 07:38:05;;;;;;;11.65;7.95;;;11.60;99.90;;;;;;5035659;28;20193;-86
2020/12/23 07:40:32;;;;;;;8.77;7.65;;;11.70;99.90;;;;;;5036294;28;20195;-86
2020/12/23 07:42:59;;;;;;;8.90;7.63;;;11.70;99.90;;;;;;5043109;28;20201;-86
2020/12/23 07:45:27;;;;;;;8.77;7.63;;;11.50;99.90;;;;;;5046948;28;20186;-87
2020/12/23 07:47:55;;;;;;;9.63;7.85;;;11.60;99.90;;;;;;5041635;28;20202;-86
2020/12/23 07:50:22;;;;;;;8.10;6.43;;;11.60;99.90;;;;;;5039956;28;20230;-87
2020/12/23 07:52:48;;;;;;;8.55;6.68;;;11.60;99.90;;;;;;5044184;28;20587;-87
2020/12/23 07:55:16;;;;;;;10.63;8.07;;;11.70;99.90;;;;;;5043303;28;20214;-87
2020/12/23 07:57:43;;;;;;;8.23;6.85;;;11.70;99.90;;;;;;5040584;28;20624;-88
2020/12/23 08:00:10;;;;;;;8.52;6.53;;;11.60;99.90;;;;;;5040993;28;20284;-85
2020/12/23 08:02:38;;;;;;;8.88;6.90;;;11.60;99.90;;;;;;5041039;28;20191;-89
2020/12/23 08:05:05;;;;;;;12.13;7.15;;;11.60;99.90;;;;;;5044975;28;20308;-91
2020/12/23 08:07:32;;;;;;;8.50;6.93;;;11.60;99.90;;;;;;5048403;28;20204;-92
2020/12/23 08:10:07;;;;;;;6.22;4.57;;;11.70;99.90;;;;;;5050239;28;20204;-91
2020/12/23 08:12:33;;;;;;;8.02;4.93;;;11.70;99.90;;;;;;5046507;28;20201;-91
2020/12/23 08:15:04;;;;;;;5.50;3.92;;;11.70;99.90;;;;;;5046602;28;20247;-91
2020/12/23 08:17:30;;;;;;;5.40;3.70;;;11.70;99.90;;;;;;5044980;28;20240;-91
2020/12/23 08:20:07;;;;;;;6.05;4.88;;;11.70;99.90;;;;;;5047447;28;20246;-88
2020/12/23 08:22:35;;;;;;;4.00;3.60;;;11.70;99.90;;;;;;5042355;28;20190;-89
2020/12/23 08:25:17;;;;;;;6.03;4.00;;;11.70;99.90;;;;;;5044790;28;20207;-91
2020/12/23 08:27:45;;;;;;;8.18;3.95;;;11.70;99.90;;;;;;5045189;28;20257;-91
2020/12/23 08:30:16;;;;;;;9.13;5.07;;;11.70;99.90;;;;;;5043085;28;20684;-90
2020/12/23 08:32:52;;;;;;;6.00;4.22;;;11.70;99.90;;;;;;5038965;28;20195;-91
2020/12/23 08:35:24;;;;;;;6.35;4.35;;;11.70;99.90;;;;;;5031947;28;20216;-91
2020/12/23 08:37:51;;;;;;;5.50;3.58;;;11.70;99.90;;;;;;5038066;28;20201;-90
2020/12/23 08:40:18;;;;;;;4.93;2.95;;;11.70;99.90;;;;;;5036964;28;20319;-89
2020/12/23 08:42:52;;;;;;;6.40;3.15;;;11.70;99.90;;;;;;5036234;28;20187;-90
2020/12/23 08:45:25;;;;;;;5.43;3.30;;;11.70;99.90;;;;;;5017414;28;20192;-90
2020/12/23 08:47:52;;;;;;;9.20;3.63;;;11.70;99.90;;;;;;5017850;28;20280;-91
2020/12/23 08:50:20;;;;;;;7.10;4.85;;;11.70;99.90;;;;;;5037151;28;20553;-90
2020/12/23 08:52:47;;;;;;;10.63;7.18;;;11.80;99.90;;;;;;5035729;28;20186;-88
2020/12/23 08:55:15;;;;;;;7.93;4.22;;;11.80;99.90;;;;;;5039387;28;20186;-90
2020/12/23 08:57:44;;;;;;;4.45;2.60;;;11.70;99.90;;;;;;5039390;28;20621;-90
2020/12/23 09:03:03;;;;;;;3.53;2.40;;;11.80;99.90;;;;;;5035070;28;20209;-90
2020/12/23 09:05:34;;;;;;;5.75;3.33;;;11.90;99.90;;;;;;5036767;28;20700;-90
2020/12/23 09:08:05;;;;;;;4.30;2.90;;;11.90;99.90;;;;;;5036319;28;20245;-89
2020/12/23 09:10:32;;;;;;;4.75;3.60;;;11.80;99.90;;;;;;5037632;28;20639;-89
2020/12/23 09:13:07;;;;;;;3.97;3.55;;;11.90;99.90;;;;;;5037724;28;20723;-91
2020/12/23 09:15:36;;;;;;;4.45;2.60;;;11.80;99.90;;;;;;5038267;28;20231;-93
2020/12/23 09:18:07;;;;;;;7.53;2.20;;;11.90;99.90;;;;;;5037313;28;20248;-91
2020/12/23 09:20:35;;;;;;;4.72;2.60;;;12.00;99.90;;;;;;5038456;28;20189;-93
2020/12/23 09:23:03;;;;;;;3.83;2.45;;;12.00;99.90;;;;;;5037816;28;20213;-92
2020/12/23 09:25:31;;;;;;;5.05;2.15;;;12.00;99.90;;;;;;5037318;28;20185;-92
2020/12/23 09:28:06;;;;;;;5.55;3.33;;;12.00;99.90;;;;;;5018445;28;20191;-91
2020/12/23 09:30:35;;;;;;;2.83;2.05;;;12.10;99.90;;;;;;5038807;28;20201;-91
2020/12/23 09:33:04;;;;;;;6.95;3.22;;;12.20;99.90;;;;;;5020337;28;20221;-92
2020/12/23 09:35:30;;;;;;;4.45;2.55;;;12.20;99.90;;;;;;5041789;28;20173;-91
2020/12/23 09:38:06;;;;;;;4.65;3.00;;;12.30;99.90;;;;;;5040801;28;20220;-91
2020/12/23 09:40:32;;;;;;;4.65;3.25;;;12.30;99.90;;;;;;5038260;28;20197;-90
2020/12/23 09:42:59;;;;;;;2.97;2.45;;;12.40;99.90;;;;;;5037065;28;20212;-90
2020/12/23 09:45:25;;;;;;;4.00;2.40;;;12.50;99.90;;;;;;5027972;28;20191;-90
2020/12/23 09:47:52;;;;;;;3.95;2.45;;;12.60;99.90;;;;;;5036534;28;20238;-90
2020/12/23 09:50:18;;;;;;;2.55;1.65;;;12.60;99.90;;;;;;5022522;28;20284;-91
2020/12/23 09:52:48;;;;;;;2.95;2.22;;;12.70;99.90;;;;;;5034370;28;20647;-94
2020/12/23 09:55:15;;;;;;;3.00;1.70;;;12.70;99.90;;;;;;5037693;28;20177;-92
2020/12/23 09:57:43;;;;;;;3.40;1.65;;;12.70;99.90;;;;;;5038711;28;20212;-92
2020/12/23 10:00:10;;;;;;;2.97;2.03;;;12.70;99.90;;;;;;5037974;28;20185;-91
2020/12/23 10:02:36;;;;;;;3.85;2.28;;;12.60;99.90;;;;;;5032956;28;20264;-91
2020/12/23 10:05:03;;;;;;;7.13;2.80;;;12.60;99.90;;;;;;5029949;28;20215;-92
2020/12/23 10:07:30;;;;;;;4.30;1.88;;;12.60;99.90;;;;;;5042333;28;20240;-92
2020/12/23 10:09:58;;;;;;;2.50;1.60;;;12.70;99.90;;;;;;5041180;28;20208;-91
2020/12/23 10:12:30;;;;;;;3.97;1.33;;;12.70;99.90;;;;;;5028833;28;20197;-94
2020/12/23 10:14:57;;;;;;;2.50;1.55;;;12.70;99.90;;;;;;5049781;28;20232;-92
2020/12/23 10:17:23;;;;;;;4.22;1.50;;;12.70;99.90;;;;;;5051985;28;20209;-93
2020/12/23 10:19:50;;;;;;;2.45;1.20;;;12.70;99.90;;;;;;5052788;28;20195;-92
2020/12/23 10:22:16;;;;;;;5.63;1.70;;;12.70;99.90;;;;;;5052291;28;20204;-91
2020/12/23 10:24:46;;;;;;;2.13;1.38;;;12.70;99.90;;;;;;5052065;28;20260;-92
2020/12/23 10:27:17;;;;;;;2.20;1.20;;;12.70;99.90;;;;;;5052536;28;20266;-92
2020/12/23 10:29:45;;;;;;;3.13;1.60;;;12.80;99.90;;;;;;5054947;28;20181;-93
2020/12/23 10:32:12;;;;;;;1.80;1.00;;;12.80;99.90;;;;;;5053825;28;20183;-92
2020/12/23 10:34:40;;;;;;;2.25;1.27;;;12.70;99.90;;;;;;5037756;28;20193;-91
2020/12/23 10:37:09;;;;;;;2.97;1.20;;;12.70;99.90;;;;;;5045054;28;20195;-91
2020/12/23 10:39:35;;;;;;;3.90;1.70;;;12.70;99.90;;;;;;5044515;28;20193;-93
2020/12/23 10:42:03;;;;;;;2.35;1.38;;;12.80;99.90;;;;;;5046107;28;20196;-92
2020/12/23 10:47:12;;;;;;;2.00;1.15;;;12.70;99.90;;;;;;5046259;28;20245;-93
2020/12/23 10:49:38;;;;;;;3.13;1.38;;;12.70;99.90;;;;;;5044805;28;20219;-93
2020/12/23 10:52:06;;;;;;;3.50;1.33;;;12.70;99.90;;;;;;5044066;28;20197;-93
2020/12/23 10:54:33;;;;;;;2.50;1.55;;;12.70;99.90;;;;;;5048257;28;20180;-94
2020/12/23 10:57:00;;;;;;;3.25;1.13;;;12.70;99.90;;;;;;5042745;28;20541;-92
2020/12/23 10:59:27;;;;;;;2.55;1.55;;;12.80;99.90;;;;;;5043391;28;20192;-92
2020/12/23 11:01:55;;;;;;;2.30;1.25;;;12.80;99.90;;;;;;5041672;28;20206;-92
2020/12/23 11:04:26;;;;;;;2.20;1.10;;;12.80;99.90;;;;;;5043209;28;20211;-93
2020/12/23 11:06:55;;;;;;;3.00;1.55;;;12.90;99.90;;;;;;5042079;28;20224;-92
2020/12/23 11:09:22;;;;;;;1.90;1.00;;;12.90;99.90;;;;;;5042848;28;20193;-93
2020/12/23 11:11:50;;;;;;;2.63;0.90;;;13.00;99.90;;;;;;5042542;28;20189;-93
2020/12/23 11:14:17;;;;;;;2.20;1.05;;;13.00;99.90;;;;;;5039221;28;20292;-91
2020/12/23 11:16:46;;;;;;;2.78;1.00;;;13.00;99.90;;;;;;5040887;28;20223;-93
2020/12/23 11:19:14;;;;;;;2.20;1.10;;;13.00;99.90;;;;;;5039552;28;20196;-93
2020/12/23 11:24:28;;;;;;;2.90;1.30;;;13.10;99.90;;;;;;5056824;28;20395;-95
2020/12/23 11:26:59;;;;;;;2.38;1.30;;;13.10;99.90;;;;;;5056129;28;20177;-92
2020/12/23 11:34:44;;;;;;;2.88;0.98;;;13.10;99.90;;;;;;5018947;28;20206;-93
2020/12/23 11:37:12;;;;;;;2.75;1.35;;;13.10;99.90;;;;;;5009712;28;20235;-93
2020/12/23 11:39:38;;;;;;;2.45;1.10;;;13.10;99.90;;;;;;5006537;28;20277;-93
2020/12/23 11:42:05;;;;;;;2.50;1.27;;;13.10;99.90;;;;;;5006908;28;20237;-93
2020/12/23 11:44:32;;;;;;;2.45;1.17;;;13.10;99.90;;;;;;4996000;28;20217;-92
2020/12/23 11:47:02;;;;;;;2.28;1.25;;;13.20;99.90;;;;;;4985767;28;20213;-93
2020/12/23 11:49:31;;;;;;;2.33;1.02;;;13.00;99.90;;;;;;4990112;28;20203;-93
2020/12/23 11:51:58;;;;;;;2.35;1.15;;;13.00;99.90;;;;;;4991807;28;20836;-92
2020/12/23 11:54:26;;;;;;;2.50;1.50;;;13.10;99.90;;;;;;4995768;28;20629;-94
2020/12/23 11:56:56;;;;;;;2.00;1.08;;;13.00;99.90;;;;;;4993538;28;20191;-93
2020/12/23 11:59:32;;;;;;;3.03;1.10;;;13.00;99.90;;;;;;4987206;28;20198;-92
2020/12/23 12:02:00;;;;;;;2.75;1.42;;;12.90;99.90;;;;;;4990297;28;20191;-93
2020/12/23 12:04:28;;;;;;;2.28;1.00;;;12.90;99.90;;;;;;5006428;28;20237;-93
2020/12/23 12:06:56;;;;;;;2.92;1.40;;;12.80;99.90;;;;;;5003938;28;20196;-93
2020/12/23 12:09:24;;;;;;;2.08;1.05;;;12.80;99.90;;;;;;5012986;28;20175;-92
2020/12/23 12:12:00;;;;;;;5.50;1.33;;;12.80;99.90;;;;;;5000123;28;20267;-92
2020/12/23 12:14:29;;;;;;;2.20;1.20;;;12.80;99.90;;;;;;4989943;28;20202;-92
2020/12/23 12:16:59;;;;;;;3.70;1.45;;;12.70;99.90;;;;;;4996563;28;20201;-93
2020/12/23 12:19:26;;;;;;;1.90;1.00;;;12.60;99.90;;;;;;5005218;28;20186;-92
2020/12/23 12:21:53;;;;;;;2.20;1.00;;;12.60;99.90;;;;;;5020060;28;20174;-93
2020/12/23 12:24:20;;;;;;;2.20;1.20;;;12.50;99.90;;;;;;5008817;28;20236;-93
2020/12/23 12:26:50;;;;;;;2.05;0.90;;;12.50;99.90;;;;;;5015118;28;20657;-92
2020/12/23 12:29:20;;;;;;;3.28;1.70;;;12.50;99.90;;;;;;5012503;28;20269;-93
2020/12/23 12:31:47;;;;;;;2.25;1.65;;;12.40;99.90;;;;;;4993275;28;20242;-93
2020/12/23 12:34:13;;;;;;;2.10;1.30;;;12.50;99.90;;;;;;5004239;28;20227;-92
2020/12/23 12:36:40;;;;;;;4.35;1.90;;;12.20;99.90;;;;;;5001177;28;20577;-89
2020/12/23 12:39:06;;;;;;;3.05;1.80;;;12.20;99.90;;;;;;5001087;28;20184;-90
2020/12/23 12:41:33;;;;;;;2.80;1.50;;;12.00;99.90;;;;;;5001374;28;20261;-90
2020/12/23 12:43:59;;;;;;;3.33;2.05;;;12.00;99.90;;;;;;4999584;28;20242;-91
2020/12/23 12:46:29;;;;;;;2.72;1.77;;;12.00;99.90;;;;;;4995925;28;20188;-91
2020/12/23 12:48:55;;;;;;;2.80;2.10;;;12.00;99.90;;;;;;4994398;28;20669;-89
2020/12/23 12:51:25;;;;;;;4.20;2.35;;;12.10;99.90;;;;;;4989025;28;20266;-91
2020/12/23 12:53:52;;;;;;;3.33;2.10;;;11.90;99.90;;;;;;4988323;28;20192;-89